createdAt,value
2023-01-29T00:02:09.268Z,16.45
2023-01-29T00:04:41.836Z,16.45
2023-01-29T00:07:14.451Z,16.42
2023-01-29T00:09:47.026Z,16.35
2023-01-29T00:12:19.605Z,16.33
2023-01-29T00:14:52.245Z,16.35
2023-01-29T00:17:24.891Z,16.33
2023-01-29T00:19:57.552Z,16.30
2023-01-29T00:22:31.001Z,16.28
2023-01-29T00:25:03.769Z,16.25
2023-01-29T00:27:36.481Z,16.25
2023-01-29T00:30:12.896Z,16.21
2023-01-29T00:32:45.986Z,16.16
2023-01-29T00:35:18.805Z,16.15
2023-01-29T00:37:51.473Z,16.15
2023-01-29T00:40:25.843Z,16.14
2023-01-29T00:43:16.768Z,16.25
2023-01-29T00:45:49.325Z,16.11
2023-01-29T00:48:21.837Z,16.09
2023-01-29T00:50:54.387Z,16.02
2023-01-29T00:53:27.179Z,16.02
2023-01-29T00:55:59.651Z,15.99
2023-01-29T00:58:34.324Z,15.99
2023-01-29T01:01:06.996Z,15.98
2023-01-29T01:03:42.378Z,15.94
2023-01-29T01:06:15.147Z,15.94
2023-01-29T01:09:06.481Z,15.94
2023-01-29T01:11:38.991Z,15.93
2023-01-29T01:14:11.535Z,15.91
2023-01-29T01:16:46.433Z,15.88
2023-01-29T01:19:19.076Z,15.86
2023-01-29T01:21:51.590Z,15.85
2023-01-29T01:24:24.137Z,15.85
2023-01-29T01:26:57.017Z,15.83
2023-01-29T01:29:29.728Z,15.81
2023-01-29T01:32:02.374Z,15.79
2023-01-29T01:34:35.703Z,15.76
2023-01-29T01:37:08.231Z,15.78
2023-01-29T01:39:40.798Z,15.78
2023-01-29T01:42:13.610Z,15.76
2023-01-29T01:45:07.940Z,15.81
2023-01-29T01:47:54.362Z,15.75
2023-01-29T01:51:09.445Z,15.78
2023-01-29T01:53:53.312Z,15.74
2023-01-29T01:56:40.774Z,15.71
2023-01-29T01:59:18.739Z,15.67
2023-01-29T02:01:54.445Z,15.63
2023-01-29T02:04:46.017Z,15.66
2023-01-29T02:07:36.999Z,15.64
2023-01-29T02:10:16.972Z,15.64
2023-01-29T02:12:51.395Z,15.61
2023-01-29T02:15:24.101Z,15.60
2023-01-29T02:17:56.711Z,15.59
2023-01-29T02:20:32.027Z,15.53
2023-01-29T02:23:46.959Z,15.62
2023-01-29T02:27:19.420Z,15.61
2023-01-29T02:30:26.498Z,15.62
2023-01-29T02:33:36.923Z,15.54
2023-01-29T02:36:50.517Z,15.58
2023-01-29T02:40:04.994Z,15.56
2023-01-29T02:42:56.849Z,15.52
2023-01-29T02:45:43.730Z,15.48
2023-01-29T02:48:22.931Z,15.46
2023-01-29T02:51:07.894Z,15.42
2023-01-29T02:53:59.417Z,15.43
2023-01-29T02:57:00.845Z,15.45
2023-01-29T02:59:42.320Z,15.39
2023-01-29T03:02:26.171Z,15.38
2023-01-29T03:05:04.681Z,15.39
2023-01-29T03:07:46.671Z,15.38
2023-01-29T03:10:31.127Z,15.37
2023-01-29T03:13:18.619Z,15.35
2023-01-29T03:16:03.891Z,15.31
2023-01-29T03:19:01.757Z,15.34
2023-01-29T03:21:53.846Z,15.33
2023-01-29T03:25:05.180Z,15.32
2023-01-29T03:28:08.443Z,15.29
2023-01-29T03:31:07.260Z,15.29
2023-01-29T03:33:53.798Z,15.30
2023-01-29T03:36:45.721Z,15.30
2023-01-29T03:39:18.414Z,15.26
2023-01-29T03:42:34.145Z,15.28
2023-01-29T03:45:28.505Z,15.37
2023-01-29T03:48:14.880Z,15.20
2023-01-29T03:51:15.616Z,15.25
2023-01-29T03:54:03.021Z,15.20
2023-01-29T03:56:47.677Z,15.20
2023-01-29T03:59:46.937Z,15.32
2023-01-29T04:02:28.062Z,15.19
2023-01-29T04:05:13.487Z,15.16
2023-01-29T04:07:48.590Z,15.13
2023-01-29T04:10:27.502Z,15.13
2023-01-29T04:13:06.918Z,15.09
2023-01-29T04:15:48.961Z,15.12
2023-01-29T04:18:21.642Z,15.10
2023-01-29T04:20:54.930Z,15.10
2023-01-29T04:23:28.182Z,15.02
2023-01-29T04:26:24.506Z,15.08
2023-01-29T04:29:25.085Z,15.11
2023-01-29T04:32:15.904Z,15.08
2023-01-29T04:35:06.346Z,15.06
2023-01-29T04:37:55.297Z,15.06
2023-01-29T04:40:42.289Z,15.04
2023-01-29T04:43:26.092Z,15.04
2023-01-29T04:46:19.768Z,15.05
2023-01-29T04:49:34.360Z,15.02
2023-01-29T04:52:32.548Z,15.03
2023-01-29T04:55:25.046Z,15.02
2023-01-29T04:58:07.476Z,14.99
2023-01-29T05:00:44.684Z,14.97
2023-01-29T05:03:17.551Z,14.95
2023-01-29T05:05:51.605Z,14.94
2023-01-29T05:08:28.304Z,14.96
2023-01-29T05:11:00.972Z,14.94
2023-01-29T05:13:39.632Z,14.94
2023-01-29T05:16:25.760Z,14.90
2023-01-29T05:18:58.944Z,14.88
2023-01-29T05:21:32.705Z,14.89
2023-01-29T05:24:18.077Z,14.93
2023-01-29T05:27:12.821Z,14.85
2023-01-29T05:29:47.584Z,14.90
2023-01-29T05:32:20.272Z,14.89
2023-01-29T05:34:52.924Z,14.89
2023-01-29T05:37:25.515Z,14.87
2023-01-29T05:39:58.172Z,14.87
2023-01-29T05:42:30.737Z,14.87
2023-01-29T05:45:04.017Z,14.86
2023-01-29T05:47:36.706Z,14.87
2023-01-29T05:50:10.265Z,14.88
2023-01-29T05:52:43.433Z,14.91
2023-01-29T05:55:16.127Z,14.94
2023-01-29T05:57:48.675Z,14.95
2023-01-29T06:00:21.557Z,14.98
2023-01-29T06:02:54.266Z,15.05
2023-01-29T06:05:26.911Z,15.11
2023-01-29T06:07:59.644Z,15.15
2023-01-29T06:10:32.536Z,15.19
2023-01-29T06:13:05.106Z,15.27
2023-01-29T06:15:41.015Z,15.36
2023-01-29T06:18:13.485Z,15.42
2023-01-29T06:20:46.029Z,15.46
2023-01-29T06:23:18.543Z,15.58
2023-01-29T06:25:51.062Z,15.65
2023-01-29T06:28:23.766Z,15.74
2023-01-29T06:31:21.054Z,15.82
2023-01-29T06:33:54.718Z,15.93
2023-01-29T06:36:27.361Z,16.00
2023-01-29T06:39:00.103Z,16.10
2023-01-29T06:41:32.834Z,16.13
2023-01-29T06:44:05.773Z,16.22
2023-01-29T06:46:38.325Z,16.35
2023-01-29T06:49:10.993Z,16.43
2023-01-29T06:51:43.515Z,16.51
2023-01-29T06:54:16.061Z,16.59
2023-01-29T06:56:48.749Z,16.66
2023-01-29T06:59:21.296Z,16.76
2023-01-29T07:01:53.851Z,16.81
2023-01-29T07:04:26.383Z,16.86
2023-01-29T07:07:02.122Z,16.90
2023-01-29T07:09:34.639Z,16.92
2023-01-29T07:12:08.246Z,16.93
2023-01-29T07:14:40.751Z,16.99
2023-01-29T07:17:13.274Z,17.06
2023-01-29T07:19:45.849Z,17.07
2023-01-29T07:22:18.406Z,17.09
2023-01-29T07:24:51.137Z,17.07
2023-01-29T07:27:23.932Z,17.13
2023-01-29T07:29:56.637Z,17.14
2023-01-29T07:32:29.358Z,17.13
2023-01-29T07:35:01.869Z,17.14
2023-01-29T07:37:34.454Z,17.14
2023-01-29T07:40:11.190Z,17.13
2023-01-29T07:42:44.124Z,17.11
2023-01-29T07:45:16.782Z,17.12
2023-01-29T07:47:54.453Z,17.11
2023-01-29T07:50:27.857Z,17.12
2023-01-29T07:53:00.997Z,17.12
2023-01-29T07:55:33.857Z,17.13
2023-01-29T07:58:06.680Z,17.12
2023-01-29T08:00:39.744Z,17.09
2023-01-29T08:03:16.401Z,17.12
2023-01-29T08:05:48.968Z,17.13
2023-01-29T08:08:21.649Z,17.14
2023-01-29T08:10:54.193Z,17.15
2023-01-29T08:13:26.769Z,17.17
2023-01-29T08:16:04.028Z,17.16
2023-01-29T08:18:38.587Z,17.14
2023-01-29T08:21:13.087Z,17.20
2023-01-29T08:23:46.405Z,17.21
2023-01-29T08:26:19.050Z,17.20
2023-01-29T08:28:51.639Z,17.24
2023-01-29T08:31:24.549Z,17.25
2023-01-29T08:33:57.343Z,17.26
2023-01-29T08:36:29.953Z,17.29
2023-01-29T08:39:02.660Z,17.28
2023-01-29T08:41:35.313Z,17.32
2023-01-29T08:44:08.049Z,17.33
2023-01-29T08:46:40.966Z,17.32
2023-01-29T08:49:13.630Z,17.36
2023-01-29T08:51:46.290Z,17.38
2023-01-29T08:54:19.057Z,17.39
2023-01-29T08:56:51.623Z,17.42
2023-01-29T08:59:24.198Z,17.44
2023-01-29T09:01:56.881Z,17.43
2023-01-29T09:04:29.538Z,17.47
2023-01-29T09:07:02.025Z,17.49
2023-01-29T09:09:34.689Z,17.49
2023-01-29T09:12:07.593Z,17.52
2023-01-29T09:14:40.135Z,17.53
2023-01-29T09:17:12.757Z,17.51
2023-01-29T09:19:45.425Z,17.56
2023-01-29T09:22:18.139Z,17.58
2023-01-29T09:24:50.684Z,17.60
2023-01-29T09:27:23.842Z,17.60
2023-01-29T09:29:56.417Z,17.60
2023-01-29T09:32:52.677Z,17.63
2023-01-29T09:35:24.109Z,17.66
2023-01-29T09:37:56.958Z,17.64
2023-01-29T09:40:55.599Z,17.67
2023-01-29T09:43:46.015Z,17.74
2023-01-29T09:46:42.705Z,17.76
2023-01-29T09:49:29.534Z,17.76
2023-01-29T09:52:10.895Z,17.75
2023-01-29T09:55:05.517Z,17.80
2023-01-29T09:57:56.059Z,17.82
2023-01-29T10:00:50.756Z,17.78
2023-01-29T10:03:28.915Z,17.82
2023-01-29T10:06:21.886Z,17.83
2023-01-29T10:09:41.770Z,17.90
2023-01-29T10:13:05.865Z,17.89
2023-01-29T10:16:08.544Z,17.89
2023-01-29T10:19:07.207Z,17.90
2023-01-29T10:22:16.464Z,17.93
2023-01-29T10:25:04.113Z,17.94
2023-01-29T10:27:44.599Z,17.93
2023-01-29T10:30:34.785Z,17.97
2023-01-29T10:33:18.424Z,17.96
2023-01-29T10:36:00.374Z,17.96
2023-01-29T10:38:50.679Z,17.98
2023-01-29T10:42:18.797Z,18.06
2023-01-29T10:45:25.705Z,18.05
2023-01-29T10:48:33.741Z,18.05
2023-01-29T10:51:45.438Z,18.07
2023-01-29T10:55:04.406Z,18.14
2023-01-29T10:58:17.364Z,18.12
2023-01-29T11:00:51.501Z,18.07
2023-01-29T11:03:28.814Z,18.22
2023-01-29T11:06:27.883Z,18.16
2023-01-29T11:09:39.825Z,18.13
2023-01-29T11:12:22.831Z,18.09
2023-01-29T11:15:18.326Z,18.14
2023-01-29T11:18:13.666Z,18.15
2023-01-29T11:20:46.606Z,18.14
2023-01-29T11:23:31.029Z,18.17
2023-01-29T11:26:05.860Z,18.14
2023-01-29T11:28:49.618Z,18.16
2023-01-29T11:31:29.217Z,18.19
2023-01-29T11:34:13.879Z,18.19
2023-01-29T11:36:47.060Z,18.32
2023-01-29T11:39:25.284Z,18.23
2023-01-29T11:42:03.746Z,18.23
2023-01-29T11:44:43.223Z,18.27
2023-01-29T11:47:38.974Z,18.27
2023-01-29T11:50:24.493Z,18.30
2023-01-29T11:53:00.276Z,18.30
2023-01-29T11:55:49.818Z,18.30
2023-01-29T11:58:35.843Z,18.36
2023-01-29T12:01:10.965Z,18.34
2023-01-29T12:03:53.887Z,18.36
2023-01-29T12:06:42.350Z,18.41
2023-01-29T12:09:22.834Z,18.43
2023-01-29T12:11:55.449Z,18.44
2023-01-29T12:14:35.957Z,18.44
2023-01-29T12:17:23.994Z,18.45
2023-01-29T12:20:09.069Z,18.48
2023-01-29T12:23:03.877Z,18.52
2023-01-29T12:26:11.073Z,18.63
2023-01-29T12:29:23.961Z,18.58
2023-01-29T12:32:38.117Z,18.58
2023-01-29T12:35:30.720Z,18.57
2023-01-29T12:38:20.958Z,18.59
2023-01-29T12:41:07.927Z,18.54
2023-01-29T12:43:49.383Z,18.55
2023-01-29T12:46:29.424Z,18.53
2023-01-29T12:49:13.001Z,18.55
2023-01-29T12:52:11.642Z,18.58
2023-01-29T12:54:56.128Z,18.55
2023-01-29T12:57:50.681Z,18.67
2023-01-29T13:00:29.290Z,18.56
2023-01-29T13:03:19.874Z,18.56
2023-01-29T13:06:03.382Z,18.49
2023-01-29T13:08:51.497Z,18.51
2023-01-29T13:11:33.899Z,18.50
2023-01-29T13:14:40.553Z,18.52
2023-01-29T13:17:30.640Z,18.50
2023-01-29T13:20:34.025Z,18.57
2023-01-29T13:23:21.160Z,18.51
2023-01-29T13:25:55.025Z,18.49
2023-01-29T13:28:28.203Z,18.46
2023-01-29T13:31:48.447Z,18.49
2023-01-29T13:34:33.163Z,18.47
2023-01-29T13:37:39.763Z,18.49
2023-01-29T13:40:27.934Z,18.46
2023-01-29T13:43:02.869Z,18.45
2023-01-29T13:45:44.545Z,18.41
2023-01-29T13:48:31.907Z,18.47
2023-01-29T13:51:16.994Z,18.43
2023-01-29T13:54:00.767Z,18.43
2023-01-29T13:56:33.323Z,18.45
2023-01-29T13:59:07.090Z,18.41
2023-01-29T14:01:48.746Z,18.44
2023-01-29T14:04:31.373Z,18.44
2023-01-29T14:07:45.439Z,18.48
2023-01-29T14:10:23.054Z,18.43
2023-01-29T14:13:18.534Z,18.47
2023-01-29T14:15:56.978Z,18.44
2023-01-29T14:18:33.665Z,18.42
2023-01-29T14:21:21.463Z,18.37
2023-01-29T14:24:18.878Z,18.43
2023-01-29T14:26:55.913Z,18.43
2023-01-29T14:29:38.080Z,18.43
2023-01-29T14:32:20.423Z,18.43
2023-01-29T14:35:20.505Z,18.47
2023-01-29T14:37:59.367Z,18.43
2023-01-29T14:40:35.724Z,18.40
2023-01-29T14:43:21.736Z,18.40
2023-01-29T14:45:54.435Z,18.46
2023-01-29T14:48:46.595Z,18.48
2023-01-29T14:51:20.802Z,18.46
2023-01-29T14:54:02.275Z,18.58
2023-01-29T14:56:59.388Z,18.50
2023-01-29T14:59:46.771Z,18.49
2023-01-29T15:02:33.807Z,18.50
2023-01-29T15:05:21.630Z,18.50
2023-01-29T15:08:01.453Z,18.49
2023-01-29T15:11:11.203Z,18.51
2023-01-29T15:14:06.375Z,18.55
2023-01-29T15:16:56.057Z,18.52
2023-01-29T15:19:44.964Z,18.51
2023-01-29T15:22:23.218Z,18.54
2023-01-29T15:25:13.781Z,18.57
2023-01-29T15:27:46.750Z,18.55
2023-01-29T15:30:32.850Z,18.54
2023-01-29T15:33:10.743Z,18.53
2023-01-29T15:35:43.523Z,18.55
2023-01-29T15:38:20.769Z,18.58
2023-01-29T15:41:02.185Z,18.57
2023-01-29T15:43:46.198Z,18.61
2023-01-29T15:46:37.596Z,18.57
2023-01-29T15:49:25.918Z,18.62
2023-01-29T15:52:04.308Z,18.60
2023-01-29T15:54:36.923Z,18.61
2023-01-29T15:57:24.897Z,18.62
2023-01-29T15:59:58.910Z,18.61
2023-01-29T16:02:34.684Z,18.61
2023-01-29T16:05:19.681Z,18.61
2023-01-29T16:07:55.615Z,18.62
2023-01-29T16:10:32.294Z,18.61
2023-01-29T16:13:05.374Z,18.62
2023-01-29T16:15:54.933Z,18.63
2023-01-29T16:18:39.514Z,18.63
2023-01-29T16:21:28.744Z,18.64
2023-01-29T16:24:09.383Z,18.64
2023-01-29T16:26:49.226Z,18.65
2023-01-29T16:29:30.019Z,18.64
2023-01-29T16:32:03.679Z,18.65
2023-01-29T16:34:41.447Z,18.65
2023-01-29T16:37:28.538Z,18.66
2023-01-29T16:40:13.280Z,18.63
2023-01-29T16:42:45.786Z,18.65
2023-01-29T16:45:30.664Z,18.68
2023-01-29T16:48:32.526Z,18.71
2023-01-29T16:51:13.965Z,18.65
2023-01-29T16:53:56.523Z,18.68
2023-01-29T16:56:33.322Z,18.66
2023-01-29T16:59:07.240Z,18.67
2023-01-29T17:01:39.854Z,18.63
2023-01-29T17:04:19.243Z,18.67
2023-01-29T17:07:02.319Z,18.68
2023-01-29T17:09:38.071Z,18.66
2023-01-29T17:12:21.923Z,18.65
2023-01-29T17:15:29.887Z,18.66
2023-01-29T17:18:03.639Z,18.64
2023-01-29T17:20:36.215Z,18.68
2023-01-29T17:23:08.676Z,18.62
2023-01-29T17:25:41.524Z,18.67
2023-01-29T17:28:17.459Z,18.67
2023-01-29T17:31:04.963Z,18.66
2023-01-29T17:33:43.501Z,18.66
2023-01-29T17:36:17.798Z,18.68
2023-01-29T17:38:50.307Z,18.65
2023-01-29T17:41:30.275Z,18.68
2023-01-29T17:44:02.818Z,18.67
2023-01-29T17:46:35.369Z,18.68
2023-01-29T17:49:28.854Z,18.72
2023-01-29T17:52:01.582Z,18.68
2023-01-29T17:54:34.093Z,18.69
2023-01-29T17:57:06.564Z,18.69
2023-01-29T17:59:39.040Z,18.64
2023-01-29T18:02:29.676Z,18.62
2023-01-29T18:05:02.472Z,18.68
2023-01-29T18:07:37.156Z,18.68
2023-01-29T18:10:21.601Z,18.71
2023-01-29T18:12:54.410Z,18.81
2023-01-29T18:15:26.933Z,18.69
2023-01-29T18:18:00.336Z,18.70
2023-01-29T18:20:36.663Z,18.68
2023-01-29T18:23:09.342Z,18.67
2023-01-29T18:25:43.200Z,18.67
2023-01-29T18:28:17.624Z,18.67
2023-01-29T18:30:50.504Z,18.67
2023-01-29T18:33:24.202Z,18.67
2023-01-29T18:35:57.119Z,18.67
2023-01-29T18:38:29.847Z,18.62
2023-01-29T18:41:10.581Z,18.64
2023-01-29T18:43:44.192Z,18.64
2023-01-29T18:46:16.934Z,18.63
2023-01-29T18:48:49.877Z,18.65
2023-01-29T18:51:22.529Z,18.62
2023-01-29T18:53:55.111Z,18.63
2023-01-29T18:56:28.008Z,18.65
2023-01-29T18:59:00.579Z,18.63
2023-01-29T19:01:33.358Z,18.64
2023-01-29T19:04:06.070Z,18.65
2023-01-29T19:06:38.947Z,18.65
2023-01-29T19:09:11.570Z,18.63
2023-01-29T19:11:44.240Z,18.64
2023-01-29T19:14:17.167Z,18.64
2023-01-29T19:16:50.504Z,18.62
2023-01-29T19:19:23.196Z,18.65
2023-01-29T19:21:55.719Z,18.62
2023-01-29T19:24:28.303Z,18.60
2023-01-29T19:27:01.919Z,18.62
2023-01-29T19:29:34.513Z,18.65
2023-01-29T19:32:08.679Z,18.63
2023-01-29T19:34:41.066Z,18.77
2023-01-29T19:37:14.404Z,18.59
2023-01-29T19:39:46.946Z,18.59
2023-01-29T19:42:20.780Z,18.60
2023-01-29T19:44:53.467Z,18.64
2023-01-29T19:47:26.097Z,18.62
2023-01-29T19:49:58.638Z,18.62
2023-01-29T19:52:49.816Z,18.62
2023-01-29T19:55:23.686Z,18.61
2023-01-29T19:57:58.155Z,18.61
2023-01-29T20:00:30.842Z,18.59
2023-01-29T20:03:03.585Z,18.61
2023-01-29T20:05:37.466Z,18.60
2023-01-29T20:08:09.999Z,18.60
2023-01-29T20:10:46.836Z,18.57
2023-01-29T20:13:19.544Z,18.60
2023-01-29T20:15:53.130Z,18.60
2023-01-29T20:18:25.655Z,18.59
2023-01-29T20:20:59.132Z,18.58
2023-01-29T20:23:38.063Z,18.60
2023-01-29T20:26:17.330Z,18.59
2023-01-29T20:28:50.115Z,18.56
2023-01-29T20:31:22.842Z,18.59
2023-01-29T20:33:55.462Z,18.59
2023-01-29T20:36:28.370Z,18.58
2023-01-29T20:39:00.864Z,18.58
2023-01-29T20:41:33.762Z,18.58
2023-01-29T20:44:06.359Z,18.52
2023-01-29T20:46:39.300Z,18.57
2023-01-29T20:49:12.314Z,18.58
2023-01-29T20:51:46.207Z,18.54
2023-01-29T20:54:18.908Z,18.58
2023-01-29T20:56:51.598Z,18.56
2023-01-29T20:59:24.336Z,18.53
2023-01-29T21:01:57.002Z,18.55
2023-01-29T21:04:31.346Z,18.57
2023-01-29T21:07:03.891Z,18.55
2023-01-29T21:09:36.634Z,18.56
2023-01-29T21:12:09.675Z,18.55
2023-01-29T21:14:42.217Z,18.55
2023-01-29T21:17:14.695Z,18.53
2023-01-29T21:19:47.871Z,18.51
2023-01-29T21:22:20.858Z,18.49
2023-01-29T21:24:53.530Z,18.53
2023-01-29T21:27:26.221Z,18.52
2023-01-29T21:29:58.806Z,18.53
2023-01-29T21:32:31.449Z,18.50
2023-01-29T21:35:04.289Z,18.53
2023-01-29T21:37:38.043Z,18.51
2023-01-29T21:40:11.461Z,18.51
2023-01-29T21:43:02.555Z,18.50
2023-01-29T21:45:35.828Z,18.51
2023-01-29T21:48:10.862Z,18.51
2023-01-29T21:50:43.930Z,18.51
2023-01-29T21:53:17.287Z,18.50
2023-01-29T21:55:50.026Z,18.47
2023-01-29T21:58:22.700Z,18.46
2023-01-29T22:00:55.438Z,18.48
2023-01-29T22:03:28.067Z,18.44
2023-01-29T22:06:00.623Z,18.46
2023-01-29T22:08:33.326Z,18.42
2023-01-29T22:11:09.537Z,18.43
2023-01-29T22:13:42.747Z,18.44
2023-01-29T22:16:15.317Z,18.43
2023-01-29T22:18:49.971Z,18.43
2023-01-29T22:21:22.595Z,18.43
2023-01-29T22:23:55.243Z,18.42
2023-01-29T22:26:29.692Z,18.40
2023-01-29T22:29:03.447Z,18.40
2023-01-29T22:31:35.967Z,18.41
2023-01-29T22:34:13.957Z,18.40
2023-01-29T22:36:46.439Z,18.36
2023-01-29T22:39:19.029Z,18.38
2023-01-29T22:41:51.607Z,18.39
2023-01-29T22:44:24.234Z,18.35
2023-01-29T22:46:56.875Z,18.33
2023-01-29T22:49:30.701Z,18.35
2023-01-29T22:52:12.106Z,18.35
2023-01-29T22:54:44.879Z,18.31
2023-01-29T22:57:17.397Z,18.29
2023-01-29T22:59:49.955Z,18.30
2023-01-29T23:02:22.646Z,18.24
2023-01-29T23:04:55.400Z,18.23
2023-01-29T23:07:28.053Z,18.24
2023-01-29T23:10:00.742Z,18.25
2023-01-29T23:12:33.408Z,18.21
2023-01-29T23:15:07.378Z,18.19
2023-01-29T23:17:40.064Z,18.21
2023-01-29T23:20:13.458Z,18.18
2023-01-29T23:22:47.066Z,18.15
2023-01-29T23:25:19.583Z,18.14
2023-01-29T23:27:52.071Z,18.11
2023-01-29T23:30:24.583Z,18.07
2023-01-29T23:32:57.332Z,18.08
2023-01-29T23:35:29.970Z,18.04
2023-01-29T23:38:02.642Z,18.05
2023-01-29T23:40:35.149Z,18.01
2023-01-29T23:43:07.721Z,18.00
2023-01-29T23:45:41.475Z,17.96
2023-01-29T23:48:14.002Z,17.97
2023-01-29T23:50:47.846Z,17.95
2023-01-29T23:53:20.575Z,17.94
2023-01-29T23:56:02.442Z,17.90
2023-01-29T23:58:35.097Z,17.90
